createdAt,value
2023-05-08T00:01:57.435Z,8.40
2023-05-08T00:04:23.980Z,8.20
2023-05-08T00:06:51.601Z,7.38
2023-05-08T00:09:18.053Z,8.32
2023-05-08T00:11:44.405Z,8.13
2023-05-08T00:14:10.822Z,7.55
2023-05-08T00:16:37.460Z,7.45
2023-05-08T00:19:03.903Z,6.85
2023-05-08T00:21:31.142Z,6.30
2023-05-08T00:23:57.490Z,6.25
2023-05-08T00:26:23.862Z,7.15
2023-05-08T00:28:50.216Z,6.55
2023-05-08T00:31:16.578Z,5.57
2023-05-08T00:33:43.003Z,6.05
2023-05-08T00:36:09.754Z,7.15
2023-05-08T00:38:37.094Z,6.55
2023-05-08T00:41:04.336Z,5.35
2023-05-08T00:43:30.873Z,5.18
2023-05-08T00:46:00.411Z,6.15
2023-05-08T00:48:33.906Z,7.63
2023-05-08T00:51:02.383Z,5.55
2023-05-08T00:53:32.807Z,6.22
2023-05-08T00:56:00.078Z,5.80
2023-05-08T00:58:27.425Z,7.45
2023-05-08T01:00:56.116Z,5.70
2023-05-08T01:03:24.040Z,6.25
2023-05-08T01:05:50.720Z,6.07
2023-05-08T01:08:17.213Z,6.43
2023-05-08T01:11:14.511Z,5.70
2023-05-08T01:14:02.940Z,6.05
2023-05-08T01:16:38.692Z,7.95
2023-05-08T01:19:32.467Z,5.68
2023-05-08T01:22:43.680Z,5.95
2023-05-08T01:25:28.733Z,5.35
2023-05-08T01:28:21.891Z,6.20
2023-05-08T01:31:10.155Z,5.18
2023-05-08T01:33:48.735Z,7.50
2023-05-08T01:36:29.099Z,7.03
2023-05-08T01:39:12.235Z,6.30
2023-05-08T01:41:41.152Z,5.45
2023-05-08T01:44:23.851Z,5.95
2023-05-08T01:46:52.117Z,6.93
2023-05-08T01:49:34.233Z,5.80
2023-05-08T01:52:10.486Z,5.85
2023-05-08T01:54:44.511Z,4.80
2023-05-08T01:57:13.326Z,5.07
2023-05-08T01:59:42.927Z,5.95
2023-05-08T02:02:10.333Z,5.55
2023-05-08T02:04:38.248Z,4.80
2023-05-08T02:07:05.137Z,5.63
2023-05-08T02:09:32.249Z,5.80
2023-05-08T02:12:01.122Z,5.63
2023-05-08T02:14:28.830Z,5.70
2023-05-08T02:16:57.746Z,6.20
2023-05-08T02:19:25.813Z,6.60
2023-05-08T02:21:53.321Z,5.78
2023-05-08T02:24:21.070Z,6.38
2023-05-08T02:26:48.845Z,5.85
2023-05-08T02:29:16.927Z,5.53
2023-05-08T02:31:45.947Z,8.00
2023-05-08T02:34:12.654Z,6.50
2023-05-08T02:36:41.021Z,5.55
2023-05-08T02:39:11.210Z,5.85
2023-05-08T02:41:40.654Z,6.93
2023-05-08T02:44:07.419Z,8.35
2023-05-08T02:46:36.448Z,7.38
2023-05-08T02:49:29.061Z,6.55
2023-05-08T02:52:13.697Z,6.75
2023-05-08T02:54:44.065Z,6.30
2023-05-08T02:57:43.538Z,6.57
2023-05-08T03:00:20.638Z,5.97
2023-05-08T03:03:12.151Z,6.95
2023-05-08T03:05:43.019Z,6.13
2023-05-08T03:08:20.804Z,7.45
2023-05-08T03:10:51.606Z,6.95
2023-05-08T03:13:20.995Z,8.43
2023-05-08T03:15:57.471Z,6.45
2023-05-08T03:18:31.008Z,6.20
2023-05-08T03:21:00.197Z,7.25
2023-05-08T03:23:29.376Z,7.07
2023-05-08T03:25:58.772Z,6.68
2023-05-08T03:28:26.235Z,7.40
2023-05-08T03:30:54.031Z,6.55
2023-05-08T03:33:23.306Z,6.15
2023-05-08T03:35:50.990Z,7.00
2023-05-08T03:38:17.457Z,7.63
2023-05-08T03:40:45.301Z,7.75
2023-05-08T03:43:12.086Z,7.88
2023-05-08T03:45:40.287Z,7.07
2023-05-08T03:48:08.607Z,7.97
2023-05-08T03:50:36.455Z,6.28
2023-05-08T03:53:03.308Z,8.15
2023-05-08T03:55:33.122Z,6.93
2023-05-08T03:58:17.474Z,6.05
2023-05-08T04:00:50.444Z,6.47
2023-05-08T04:03:24.811Z,6.32
2023-05-08T04:06:08.086Z,8.05
2023-05-08T04:08:45.248Z,7.00
2023-05-08T04:11:30.454Z,6.32
2023-05-08T04:14:07.045Z,6.43
2023-05-08T04:16:39.560Z,6.60
2023-05-08T04:19:28.815Z,8.30
2023-05-08T04:21:59.368Z,7.90
2023-05-08T04:24:29.015Z,6.75
2023-05-08T04:26:55.962Z,6.65
2023-05-08T04:29:23.045Z,8.48
2023-05-08T04:31:50.981Z,6.75
2023-05-08T04:34:18.362Z,7.15
2023-05-08T04:36:44.697Z,7.45
2023-05-08T04:39:11.106Z,7.38
2023-05-08T04:41:37.590Z,6.90
2023-05-08T04:44:04.580Z,7.68
2023-05-08T04:46:31.087Z,6.72
2023-05-08T04:48:57.583Z,8.30
2023-05-08T04:51:24.068Z,9.10
2023-05-08T04:53:50.624Z,11.98
2023-05-08T04:56:16.985Z,12.02
2023-05-08T04:58:43.399Z,7.50
2023-05-08T05:01:09.846Z,9.80
2023-05-08T05:03:36.729Z,8.35
2023-05-08T05:06:03.333Z,10.88
2023-05-08T05:08:29.748Z,7.05
2023-05-08T05:10:56.196Z,6.88
2023-05-08T05:13:22.732Z,8.05
2023-05-08T05:15:51.376Z,11.75
2023-05-08T05:18:18.284Z,7.35
2023-05-08T05:20:44.795Z,7.07
2023-05-08T05:23:11.951Z,10.30
2023-05-08T05:25:38.666Z,7.40
2023-05-08T05:28:05.229Z,7.75
2023-05-08T05:30:31.879Z,8.38
2023-05-08T05:32:58.785Z,8.55
2023-05-08T05:35:25.760Z,7.75
2023-05-08T05:37:52.276Z,12.40
2023-05-08T05:40:18.724Z,7.25
2023-05-08T05:42:49.876Z,7.50
2023-05-08T05:45:16.309Z,9.98
2023-05-08T05:47:49.956Z,7.97
2023-05-08T05:50:18.395Z,7.80
2023-05-08T05:52:44.852Z,9.73
2023-05-08T05:55:11.851Z,15.65
2023-05-08T05:57:38.590Z,8.23
2023-05-08T06:00:06.305Z,8.20
2023-05-08T06:02:35.484Z,8.25
2023-05-08T06:05:02.405Z,9.00
2023-05-08T06:07:28.865Z,6.97
2023-05-08T06:09:56.112Z,7.43
2023-05-08T06:12:22.648Z,7.70
2023-05-08T06:14:51.729Z,7.25
2023-05-08T06:17:18.988Z,6.85
2023-05-08T06:19:55.950Z,8.88
2023-05-08T06:22:24.141Z,7.05
2023-05-08T06:24:54.383Z,7.32
2023-05-08T06:27:22.038Z,6.30
2023-05-08T06:29:51.651Z,6.88
2023-05-08T06:32:18.338Z,7.32
2023-05-08T06:34:45.322Z,9.48
2023-05-08T06:37:11.748Z,7.78
2023-05-08T06:39:38.209Z,7.95
2023-05-08T06:42:08.613Z,11.07
2023-05-08T06:44:35.573Z,8.98
2023-05-08T06:47:02.129Z,11.52
2023-05-08T06:49:28.769Z,10.85
2023-05-08T06:51:57.717Z,7.82
2023-05-08T06:54:24.397Z,8.70
2023-05-08T06:56:52.762Z,7.82
2023-05-08T06:59:19.188Z,8.90
2023-05-08T07:01:45.729Z,7.72
2023-05-08T07:04:13.022Z,10.35
2023-05-08T07:06:39.441Z,9.10
2023-05-08T07:09:05.874Z,7.93
2023-05-08T07:11:32.306Z,7.82
2023-05-08T07:13:58.837Z,8.57
2023-05-08T07:16:25.301Z,8.57
2023-05-08T07:18:53.033Z,9.90
2023-05-08T07:21:21.382Z,8.63
2023-05-08T07:23:50.297Z,9.65
2023-05-08T07:26:16.716Z,11.73
2023-05-08T07:28:43.171Z,8.35
2023-05-08T07:31:10.213Z,13.32
2023-05-08T07:33:36.639Z,10.65
2023-05-08T07:36:03.181Z,8.40
2023-05-08T07:38:29.619Z,7.70
2023-05-08T07:40:57.535Z,9.93
2023-05-08T07:43:24.277Z,10.18
2023-05-08T07:45:50.680Z,8.52
2023-05-08T07:48:17.185Z,9.73
2023-05-08T07:50:44.560Z,8.05
2023-05-08T07:53:11.127Z,9.20
2023-05-08T07:55:37.607Z,8.23
2023-05-08T07:58:03.991Z,8.48
2023-05-08T08:00:30.395Z,7.22
2023-05-08T08:02:57.408Z,8.50
2023-05-08T08:05:24.058Z,8.60
2023-05-08T08:07:50.516Z,9.45
2023-05-08T08:10:17.100Z,8.23
2023-05-08T08:12:43.510Z,8.10
2023-05-08T08:15:10.336Z,7.90
2023-05-08T08:17:37.643Z,7.70
2023-05-08T08:20:04.714Z,11.68
2023-05-08T08:22:31.078Z,9.63
2023-05-08T08:24:57.714Z,9.55
2023-05-08T08:27:24.141Z,8.52
2023-05-08T08:29:52.514Z,8.13
2023-05-08T08:32:25.228Z,11.50
2023-05-08T08:34:51.769Z,7.50
2023-05-08T08:37:18.169Z,9.52
2023-05-08T08:39:44.617Z,9.95
2023-05-08T08:42:12.187Z,8.23
2023-05-08T08:44:40.161Z,8.73
2023-05-08T08:47:10.761Z,9.13
2023-05-08T08:49:42.892Z,7.75
2023-05-08T08:52:22.615Z,9.73
2023-05-08T08:54:50.402Z,13.75
2023-05-08T08:57:18.978Z,8.43
2023-05-08T08:59:45.645Z,8.13
2023-05-08T09:02:17.583Z,10.25
2023-05-08T09:04:44.311Z,7.40
2023-05-08T09:07:12.081Z,8.18
2023-05-08T09:09:44.403Z,9.98
2023-05-08T09:12:13.077Z,7.90
2023-05-08T09:14:39.507Z,8.13
2023-05-08T09:17:06.107Z,8.73
2023-05-08T09:19:33.538Z,7.63
2023-05-08T09:22:00.898Z,9.93
2023-05-08T09:24:54.737Z,7.78
2023-05-08T09:27:22.576Z,12.30
2023-05-08T09:30:04.511Z,7.10
2023-05-08T09:32:32.453Z,9.20
2023-05-08T09:34:59.688Z,7.32
2023-05-08T09:37:27.426Z,7.05
2023-05-08T09:39:54.654Z,6.82
2023-05-08T09:42:21.364Z,7.47
2023-05-08T09:44:52.944Z,9.60
2023-05-08T09:47:22.278Z,9.15
2023-05-08T09:50:03.215Z,8.23
2023-05-08T09:52:30.910Z,7.50
2023-05-08T09:55:02.146Z,9.10
2023-05-08T09:57:30.275Z,7.22
2023-05-08T10:00:05.912Z,8.15
2023-05-08T10:02:32.910Z,8.93
2023-05-08T10:04:59.338Z,7.50
2023-05-08T10:07:33.378Z,10.00
2023-05-08T10:10:07.023Z,7.55
2023-05-08T10:12:33.709Z,6.95
2023-05-08T10:15:00.719Z,6.85
2023-05-08T10:17:53.469Z,7.00
2023-05-08T10:20:21.721Z,9.20
2023-05-08T10:22:48.931Z,7.25
2023-05-08T10:25:17.683Z,8.65
2023-05-08T10:28:13.216Z,8.18
2023-05-08T10:30:50.552Z,6.38
2023-05-08T10:33:21.518Z,6.93
2023-05-08T10:35:48.100Z,7.55
2023-05-08T10:38:16.405Z,6.93
2023-05-08T10:40:43.168Z,7.10
2023-05-08T10:43:10.708Z,9.02
2023-05-08T10:45:37.917Z,6.70
2023-05-08T10:48:25.584Z,6.68
2023-05-08T10:51:02.819Z,6.53
2023-05-08T10:53:47.945Z,8.63
2023-05-08T10:56:14.367Z,7.38
2023-05-08T10:58:40.848Z,6.53
2023-05-08T11:01:07.914Z,6.40
2023-05-08T11:03:43.395Z,6.97
2023-05-08T11:06:10.096Z,7.05
2023-05-08T11:08:50.625Z,7.00
2023-05-08T11:11:30.263Z,8.52
2023-05-08T11:14:11.930Z,6.68
2023-05-08T11:17:03.704Z,6.60
2023-05-08T11:19:30.854Z,5.97
2023-05-08T11:22:14.542Z,6.38
2023-05-08T11:24:48.563Z,7.53
2023-05-08T11:27:15.845Z,7.65
2023-05-08T11:29:42.373Z,6.78
2023-05-08T11:32:08.766Z,8.48
2023-05-08T11:34:44.678Z,6.78
2023-05-08T11:39:44.764Z,7.80
2023-05-08T11:42:40.596Z,6.72
2023-05-08T11:45:10.629Z,10.23
2023-05-08T11:47:41.243Z,6.32
2023-05-08T11:50:09.297Z,6.45
2023-05-08T11:52:37.123Z,6.88
2023-05-08T11:55:05.117Z,7.60
2023-05-08T11:57:34.964Z,7.50
2023-05-08T12:00:09.861Z,8.00
2023-05-08T12:02:37.054Z,8.60
2023-05-08T12:05:03.903Z,8.63
2023-05-08T12:07:31.272Z,9.23
2023-05-08T12:09:58.756Z,9.65
2023-05-08T12:12:36.828Z,10.75
2023-05-08T12:15:07.357Z,8.50
2023-05-08T12:17:38.217Z,10.05
2023-05-08T12:20:15.715Z,9.23
2023-05-08T12:22:49.483Z,8.85
2023-05-08T12:25:17.446Z,10.27
2023-05-08T12:27:44.877Z,9.45
2023-05-08T12:30:14.040Z,10.57
2023-05-08T12:32:42.353Z,13.95
2023-05-08T12:35:10.183Z,10.70
2023-05-08T12:37:36.741Z,7.93
2023-05-08T12:40:04.198Z,7.97
2023-05-08T12:42:49.686Z,8.13
2023-05-08T12:45:28.018Z,8.25
2023-05-08T12:48:00.321Z,8.40
2023-05-08T12:50:26.926Z,7.38
2023-05-08T12:52:53.508Z,9.07
2023-05-08T12:55:28.124Z,7.70
2023-05-08T12:58:05.950Z,9.10
2023-05-08T13:00:38.209Z,7.30
2023-05-08T13:03:05.420Z,6.78
2023-05-08T13:05:31.959Z,6.22
2023-05-08T13:08:09.141Z,6.47
2023-05-08T13:10:50.210Z,6.78
2023-05-08T13:13:19.195Z,6.55
2023-05-08T13:15:46.150Z,6.75
2023-05-08T13:18:12.816Z,6.65
2023-05-08T13:20:39.686Z,6.15
2023-05-08T13:23:06.475Z,6.15
2023-05-08T13:25:33.040Z,6.05
2023-05-08T13:28:00.306Z,5.50
2023-05-08T13:30:26.843Z,8.00
2023-05-08T13:33:09.215Z,5.95
2023-05-08T13:35:36.081Z,6.45
2023-05-08T13:38:02.793Z,5.07
2023-05-08T13:40:29.734Z,7.38
2023-05-08T13:42:56.101Z,7.85
2023-05-08T13:45:22.902Z,5.05
2023-05-08T13:47:50.008Z,5.30
2023-05-08T13:50:19.305Z,5.40
2023-05-08T13:52:45.770Z,5.68
2023-05-08T13:55:13.689Z,6.30
2023-05-08T13:57:40.696Z,5.13
2023-05-08T14:00:08.924Z,6.40
2023-05-08T14:02:35.784Z,5.68
2023-05-08T14:05:02.193Z,5.22
2023-05-08T14:07:29.899Z,5.13
2023-05-08T14:09:56.363Z,5.63
2023-05-08T14:12:22.873Z,5.20
2023-05-08T14:14:49.293Z,4.80
2023-05-08T14:17:15.709Z,5.28
2023-05-08T14:19:42.257Z,5.20
2023-05-08T14:22:08.733Z,4.55
2023-05-08T14:24:35.310Z,5.47
2023-05-08T14:27:05.610Z,4.28
2023-05-08T14:29:33.161Z,4.30
2023-05-08T14:31:59.620Z,6.65
2023-05-08T14:34:44.408Z,6.13
2023-05-08T14:37:11.496Z,4.00
2023-05-08T14:39:37.834Z,4.70
2023-05-08T14:44:33.599Z,6.35
2023-05-08T14:47:00.028Z,5.85
2023-05-08T14:49:36.555Z,5.45
2023-05-08T14:52:05.531Z,7.35
2023-05-08T14:54:32.103Z,5.50
2023-05-08T14:56:58.795Z,4.63
2023-05-08T14:59:25.239Z,4.97
2023-05-08T15:01:51.693Z,4.97
2023-05-08T15:04:18.220Z,4.53
2023-05-08T15:06:44.856Z,4.03
2023-05-08T15:09:11.252Z,4.55
2023-05-08T15:11:37.695Z,6.05
2023-05-08T15:14:05.338Z,3.85
2023-05-08T15:16:31.861Z,4.32
2023-05-08T15:18:58.327Z,4.07
2023-05-08T15:21:26.715Z,4.10
2023-05-08T15:23:54.982Z,4.32
2023-05-08T15:26:22.676Z,4.38
2023-05-08T15:28:49.477Z,4.07
2023-05-08T15:31:16.187Z,2.83
2023-05-08T15:33:44.960Z,5.13
2023-05-08T15:36:13.380Z,3.42
2023-05-08T15:38:40.989Z,3.60
2023-05-08T15:41:07.851Z,3.65
2023-05-08T15:43:34.221Z,4.25
2023-05-08T15:46:00.670Z,3.13
2023-05-08T15:48:27.172Z,2.65
2023-05-08T15:50:53.589Z,6.28
2023-05-08T15:53:19.931Z,2.45
2023-05-08T15:55:46.410Z,2.80
2023-05-08T15:58:12.781Z,3.40
2023-05-08T16:00:44.717Z,3.35
2023-05-08T16:03:12.251Z,3.85
2023-05-08T16:05:39.407Z,3.35
2023-05-08T16:08:05.988Z,3.03
2023-05-08T16:10:32.344Z,5.35
2023-05-08T16:12:58.804Z,3.42
2023-05-08T16:15:25.472Z,3.20
2023-05-08T16:17:51.808Z,3.97
2023-05-08T16:20:18.197Z,3.30
2023-05-08T16:22:44.638Z,3.40
2023-05-08T16:25:11.055Z,5.28
2023-05-08T16:27:37.589Z,6.53
2023-05-08T16:30:04.308Z,3.63
2023-05-08T16:32:30.758Z,4.00
2023-05-08T16:34:57.266Z,3.55
2023-05-08T16:37:23.706Z,3.90
2023-05-08T16:39:50.080Z,6.45
2023-05-08T16:42:18.779Z,6.85
2023-05-08T16:44:45.326Z,3.85
2023-05-08T16:47:11.802Z,4.70
2023-05-08T16:49:38.411Z,4.93
2023-05-08T16:52:04.742Z,2.88
2023-05-08T16:54:31.184Z,2.30
2023-05-08T16:56:57.758Z,1.85
2023-05-08T16:59:24.186Z,2.33
2023-05-08T17:01:50.600Z,2.40
2023-05-08T17:04:16.967Z,12.75
2023-05-08T17:06:43.336Z,4.15
2023-05-08T17:09:09.805Z,1.27
2023-05-08T17:11:36.189Z,2.85
2023-05-08T17:14:02.681Z,1.35
2023-05-08T17:16:29.143Z,1.77
2023-05-08T17:18:55.728Z,2.72
2023-05-08T17:21:22.164Z,3.13
2023-05-08T17:23:48.628Z,1.00
2023-05-08T17:26:15.117Z,0.90
2023-05-08T17:28:41.724Z,1.05
2023-05-08T17:31:08.134Z,0.98
2023-05-08T17:33:34.537Z,7.25
2023-05-08T17:36:02.275Z,5.68
2023-05-08T17:38:28.630Z,0.80
2023-05-08T17:40:56.304Z,2.17
2023-05-08T17:43:22.896Z,6.55
2023-05-08T17:45:49.312Z,2.60
2023-05-08T17:48:15.698Z,0.60
2023-05-08T17:50:43.499Z,1.23
2023-05-08T17:53:10.001Z,0.82
2023-05-08T17:55:37.043Z,1.67
2023-05-08T17:58:03.482Z,0.73
2023-05-08T18:00:29.841Z,4.43
2023-05-08T18:02:56.255Z,2.35
2023-05-08T18:05:22.866Z,0.70
2023-05-08T18:08:02.523Z,0.70
2023-05-08T18:10:28.948Z,0.98
2023-05-08T18:12:55.434Z,3.20
2023-05-08T18:15:21.837Z,1.17
2023-05-08T18:17:48.315Z,0.82
2023-05-08T18:20:15.891Z,1.00
2023-05-08T18:22:42.310Z,1.65
2023-05-08T18:25:08.825Z,1.90
2023-05-08T18:27:35.352Z,1.05
2023-05-08T18:30:01.993Z,1.30
2023-05-08T18:32:29.052Z,1.05
2023-05-08T18:34:56.741Z,1.13
2023-05-08T18:37:23.202Z,0.88
2023-05-08T18:39:50.005Z,3.50
2023-05-08T18:42:16.409Z,1.90
2023-05-08T18:44:43.905Z,1.15
2023-05-08T18:47:10.237Z,2.15
2023-05-08T18:49:36.710Z,1.90
2023-05-08T18:52:08.487Z,1.30
2023-05-08T18:54:34.885Z,1.10
2023-05-08T18:57:04.990Z,1.48
2023-05-08T18:59:31.375Z,1.15
2023-05-08T19:01:58.113Z,1.50
2023-05-08T19:04:24.501Z,3.47
2023-05-08T19:06:50.899Z,1.70
2023-05-08T19:09:17.273Z,2.10
2023-05-08T19:11:43.637Z,2.03
2023-05-08T19:14:10.865Z,1.85
2023-05-08T19:16:37.272Z,2.33
2023-05-08T19:19:03.642Z,3.45
2023-05-08T19:21:31.899Z,1.92
2023-05-08T19:23:58.251Z,1.92
2023-05-08T19:26:24.647Z,4.30
2023-05-08T19:28:51.081Z,1.90
2023-05-08T19:31:17.584Z,2.53
2023-05-08T19:33:43.993Z,2.65
2023-05-08T19:36:10.418Z,2.50
2023-05-08T19:38:39.967Z,2.42
2023-05-08T19:41:11.481Z,2.05
2023-05-08T19:43:37.897Z,2.13
2023-05-08T19:46:16.825Z,1.70
2023-05-08T19:48:43.251Z,2.08
2023-05-08T19:51:11.434Z,2.05
2023-05-08T19:53:38.132Z,1.90
2023-05-08T19:56:06.780Z,2.33
2023-05-08T19:58:33.274Z,2.92
2023-05-08T20:00:59.725Z,3.80
2023-05-08T20:03:26.348Z,2.95
2023-05-08T20:05:53.817Z,2.72
2023-05-08T20:08:20.471Z,2.50
2023-05-08T20:10:49.741Z,1.70
2023-05-08T20:13:17.650Z,1.85
2023-05-08T20:15:45.359Z,1.63
2023-05-08T20:18:12.232Z,3.63
2023-05-08T20:20:39.199Z,3.47
2023-05-08T20:23:06.078Z,2.60
2023-05-08T20:25:32.777Z,4.55
2023-05-08T20:27:59.709Z,4.15
2023-05-08T20:30:26.487Z,2.80
2023-05-08T20:32:53.019Z,2.92
2023-05-08T20:35:19.732Z,3.38
2023-05-08T20:37:47.579Z,3.35
2023-05-08T20:40:15.152Z,3.17
2023-05-08T20:42:42.097Z,3.85
2023-05-08T20:45:09.486Z,3.40
2023-05-08T20:47:36.152Z,5.97
2023-05-08T20:50:03.145Z,4.40
2023-05-08T20:52:32.069Z,6.15
2023-05-08T20:54:58.881Z,5.30
2023-05-08T20:57:25.863Z,5.55
2023-05-08T20:59:52.268Z,4.43
2023-05-08T21:02:18.761Z,6.20
2023-05-08T21:04:45.299Z,4.30
2023-05-08T21:07:11.885Z,5.05
2023-05-08T21:09:38.302Z,5.68
2023-05-08T21:12:04.829Z,5.57
2023-05-08T21:14:31.303Z,5.40
2023-05-08T21:16:57.757Z,6.30
2023-05-08T21:19:24.157Z,7.45
2023-05-08T21:21:50.689Z,6.72
2023-05-08T21:24:17.137Z,8.18
2023-05-08T21:26:43.472Z,7.22
2023-05-08T21:29:10.821Z,6.95
2023-05-08T21:31:37.325Z,8.60
2023-05-08T21:34:04.166Z,9.82
2023-05-08T21:36:32.056Z,6.38
2023-05-08T21:38:58.459Z,8.02
2023-05-08T21:41:24.934Z,7.55
2023-05-08T21:43:51.269Z,6.85
2023-05-08T21:46:17.687Z,6.53
2023-05-08T21:48:44.081Z,6.90
2023-05-08T21:51:10.437Z,8.82
2023-05-08T21:53:37.045Z,7.93
2023-05-08T21:56:03.521Z,8.05
2023-05-08T21:58:29.864Z,8.38
2023-05-08T22:00:58.383Z,8.68
2023-05-08T22:03:25.228Z,7.82
2023-05-08T22:05:51.762Z,6.85
2023-05-08T22:08:18.148Z,6.20
2023-05-08T22:10:44.684Z,7.63
2023-05-08T22:13:13.189Z,8.45
2023-05-08T22:15:39.750Z,6.47
2023-05-08T22:18:06.154Z,6.45
2023-05-08T22:20:33.260Z,6.03
2023-05-08T22:22:59.660Z,7.40
2023-05-08T22:25:26.613Z,7.18
2023-05-08T22:27:53.181Z,5.78
2023-05-08T22:30:19.655Z,5.95
2023-05-08T22:32:53.124Z,7.65
2023-05-08T22:35:22.245Z,7.65
2023-05-08T22:37:48.605Z,7.35
2023-05-08T22:40:14.955Z,9.27
2023-05-08T22:42:41.914Z,6.75
2023-05-08T22:45:09.030Z,6.57
2023-05-08T22:47:35.563Z,7.10
2023-05-08T22:50:03.496Z,8.18
2023-05-08T22:52:29.845Z,7.25
2023-05-08T22:54:56.189Z,7.15
2023-05-08T22:57:22.632Z,8.32
2023-05-08T22:59:48.966Z,10.63
2023-05-08T23:02:15.302Z,8.45
2023-05-08T23:04:41.765Z,9.55
2023-05-08T23:07:08.154Z,7.93
2023-05-08T23:09:34.499Z,8.05
2023-05-08T23:12:01.041Z,9.82
2023-05-08T23:14:27.410Z,7.53
2023-05-08T23:16:53.776Z,10.88
2023-05-08T23:19:20.217Z,8.45
2023-05-08T23:21:46.579Z,8.80
2023-05-08T23:24:13.017Z,8.77
2023-05-08T23:26:41.932Z,7.85
2023-05-08T23:29:08.674Z,9.27
2023-05-08T23:31:35.114Z,8.07
2023-05-08T23:34:01.836Z,10.02
2023-05-08T23:36:28.205Z,8.75
2023-05-08T23:38:54.565Z,10.25
2023-05-08T23:41:20.974Z,12.63
2023-05-08T23:43:47.369Z,9.68
2023-05-08T23:46:13.869Z,10.23
2023-05-08T23:48:40.396Z,9.23
2023-05-08T23:51:06.764Z,8.90
2023-05-08T23:53:33.090Z,9.18
2023-05-08T23:55:59.568Z,9.45
2023-05-08T23:58:26.248Z,9.35
